createdAt,value
2022-08-20T00:04:53.134Z,92.64
2022-08-20T00:09:55.816Z,92.41
2022-08-20T00:14:58.302Z,92.99
2022-08-20T00:20:01.326Z,92.94
2022-08-20T00:25:09.812Z,92.85
2022-08-20T00:30:14.449Z,93.07
2022-08-20T00:35:19.205Z,92.90
2022-08-20T00:40:25.687Z,92.93
2022-08-20T00:45:29.923Z,92.67
2022-08-20T00:50:36.159Z,92.90
2022-08-20T00:55:39.604Z,93.07
2022-08-20T01:00:46.038Z,93.16
2022-08-20T01:05:50.568Z,93.49
2022-08-20T01:11:05.803Z,93.46
2022-08-20T01:16:15.368Z,93.52
2022-08-20T01:21:28.337Z,93.67
2022-08-20T01:26:39.530Z,93.80
2022-08-20T01:31:42.142Z,93.79
2022-08-20T01:36:53.016Z,94.18
2022-08-20T01:42:14.649Z,94.36
2022-08-20T01:47:20.765Z,94.54
2022-08-20T01:52:31.075Z,94.78
2022-08-20T01:57:34.934Z,95.19
2022-08-20T02:02:36.455Z,95.49
2022-08-20T02:07:38.517Z,95.67
2022-08-20T02:12:40.420Z,95.56
2022-08-20T02:17:42.809Z,95.91
2022-08-20T02:22:51.303Z,96.07
2022-08-20T02:27:55.422Z,96.37
2022-08-20T02:32:57.782Z,96.53
2022-08-20T02:37:59.615Z,96.49
2022-08-20T02:43:02.539Z,96.53
2022-08-20T02:48:05.390Z,96.86
2022-08-20T02:53:07.716Z,96.65
2022-08-20T02:58:09.269Z,97.20
2022-08-20T03:03:14.011Z,96.89
2022-08-20T03:08:16.010Z,97.04
2022-08-20T03:13:19.402Z,96.93
2022-08-20T03:18:23.791Z,96.94
2022-08-20T03:23:25.458Z,97.01
2022-08-20T03:28:27.532Z,97.37
2022-08-20T03:33:31.288Z,97.36
2022-08-20T03:38:33.612Z,97.51
2022-08-20T03:43:35.485Z,97.61
2022-08-20T03:48:38.453Z,97.49
2022-08-20T03:53:40.333Z,97.40
2022-08-20T03:58:41.871Z,97.80
2022-08-20T04:03:43.382Z,97.88
2022-08-20T04:08:45.028Z,98.09
2022-08-20T04:13:46.572Z,97.83
2022-08-20T04:19:01.500Z,97.96
2022-08-20T04:24:06.051Z,98.33
2022-08-20T04:29:08.282Z,98.11
2022-08-20T04:34:09.867Z,98.13
2022-08-20T04:39:11.407Z,97.96
2022-08-20T04:44:12.933Z,98.27
2022-08-20T04:49:14.592Z,98.23
2022-08-20T04:54:16.191Z,98.43
2022-08-20T04:59:18.390Z,97.92
2022-08-20T05:04:19.904Z,98.38
2022-08-20T05:09:21.528Z,98.45
2022-08-20T05:14:23.072Z,98.42
2022-08-20T05:19:24.599Z,98.42
2022-08-20T05:24:26.322Z,98.16
2022-08-20T05:29:28.511Z,98.39
2022-08-20T05:34:30.127Z,98.29
2022-08-20T05:39:35.461Z,98.16
2022-08-20T05:44:39.362Z,98.10
2022-08-20T05:49:41.584Z,98.17
2022-08-20T05:54:43.189Z,98.11
2022-08-20T05:59:44.781Z,97.74
2022-08-20T06:04:46.298Z,97.59
2022-08-20T06:09:57.943Z,97.47
2022-08-20T06:14:59.509Z,97.21
2022-08-20T06:20:06.695Z,96.62
2022-08-20T06:25:10.184Z,96.17
2022-08-20T06:30:15.019Z,96.25
2022-08-20T06:35:19.830Z,95.76
2022-08-20T06:40:24.874Z,95.35
2022-08-20T06:45:29.921Z,95.12
2022-08-20T06:50:43.196Z,94.75
2022-08-20T06:55:54.649Z,94.51
2022-08-20T07:00:56.165Z,93.83
2022-08-20T07:05:57.896Z,93.83
2022-08-20T07:10:59.714Z,91.67
2022-08-20T07:16:01.264Z,90.49
2022-08-20T07:21:03.308Z,89.68
2022-08-20T07:26:05.371Z,88.96
2022-08-20T07:31:25.950Z,87.94
2022-08-20T07:36:28.573Z,87.34
2022-08-20T07:41:30.087Z,87.05
2022-08-20T07:46:32.147Z,85.99
2022-08-20T07:51:34.240Z,85.11
2022-08-20T07:56:35.932Z,83.61
2022-08-20T08:01:38.214Z,82.51
2022-08-20T08:06:40.506Z,80.69
2022-08-20T08:11:49.921Z,79.14
2022-08-20T08:16:54.225Z,76.51
2022-08-20T08:21:58.714Z,75.10
2022-08-20T08:27:00.483Z,74.96
2022-08-20T08:32:03.700Z,73.92
2022-08-20T08:37:05.567Z,73.32
2022-08-20T08:42:23.206Z,73.05
2022-08-20T08:47:29.310Z,71.62
2022-08-20T08:52:36.681Z,71.11
2022-08-20T08:57:38.261Z,68.03
2022-08-20T09:02:42.381Z,65.36
2022-08-20T09:07:48.212Z,63.43
2022-08-20T09:12:50.261Z,62.42
2022-08-20T09:17:53.654Z,60.90
2022-08-20T09:22:55.712Z,59.55
2022-08-20T09:27:57.489Z,59.49
2022-08-20T09:33:00.124Z,56.84
2022-08-20T09:38:01.833Z,58.67
2022-08-20T09:43:05.717Z,58.30
2022-08-20T09:48:10.526Z,58.08
2022-08-20T09:53:12.562Z,56.01
2022-08-20T09:58:38.659Z,54.24
2022-08-20T10:03:42.853Z,54.97
2022-08-20T10:08:44.389Z,53.16
2022-08-20T10:13:46.065Z,52.59
2022-08-20T10:18:49.232Z,50.94
2022-08-20T10:23:50.928Z,49.74
2022-08-20T10:28:52.552Z,48.72
2022-08-20T10:33:54.098Z,49.72
2022-08-20T10:38:55.607Z,48.77
2022-08-20T10:43:57.157Z,48.46
2022-08-20T10:48:58.685Z,48.63
2022-08-20T10:54:00.475Z,49.15
2022-08-20T10:59:02.025Z,48.79
2022-08-20T11:04:04.719Z,48.01
2022-08-20T11:09:06.219Z,47.40
2022-08-20T11:14:11.312Z,47.26
2022-08-20T11:19:12.807Z,48.01
2022-08-20T11:24:14.303Z,48.16
2022-08-20T11:29:17.115Z,48.10
2022-08-20T11:34:19.471Z,48.48
2022-08-20T11:39:20.960Z,48.24
2022-08-20T11:44:22.662Z,47.38
2022-08-20T11:49:24.153Z,47.40
2022-08-20T11:54:25.713Z,47.05
2022-08-20T11:59:28.147Z,47.34
2022-08-20T12:04:29.691Z,48.73
2022-08-20T12:09:35.083Z,49.22
2022-08-20T12:14:36.716Z,48.73
2022-08-20T12:19:42.607Z,48.20
2022-08-20T12:24:44.228Z,47.28
2022-08-20T12:29:49.817Z,46.91
2022-08-20T12:34:51.677Z,45.77
2022-08-20T12:39:57.164Z,46.08
2022-08-20T12:44:59.593Z,46.36
2022-08-20T12:50:07.133Z,47.03
2022-08-20T12:55:10.316Z,47.76
2022-08-20T13:00:20.698Z,48.39
2022-08-20T13:05:23.594Z,48.34
2022-08-20T13:10:31.462Z,48.34
2022-08-20T13:15:33.279Z,48.90
2022-08-20T13:20:36.142Z,49.41
2022-08-20T13:25:37.720Z,48.92
2022-08-20T13:30:40.854Z,48.36
2022-08-20T13:35:42.371Z,47.94
2022-08-20T13:40:44.081Z,48.22
2022-08-20T13:45:50.349Z,46.77
2022-08-20T13:50:51.856Z,46.29
2022-08-20T13:55:56.449Z,45.35
2022-08-20T14:00:58.213Z,44.85
2022-08-20T14:06:01.196Z,44.71
2022-08-20T14:11:02.842Z,45.34
2022-08-20T14:16:04.473Z,44.46
2022-08-20T14:21:06.555Z,44.50
2022-08-20T14:26:08.048Z,43.89
2022-08-20T14:31:09.556Z,44.19
2022-08-20T14:36:11.085Z,43.88
2022-08-20T14:41:12.579Z,44.01
2022-08-20T14:46:14.087Z,43.18
2022-08-20T14:51:15.602Z,43.85
2022-08-20T14:56:17.985Z,43.57
2022-08-20T15:01:19.599Z,43.50
2022-08-20T15:06:21.998Z,42.91
2022-08-20T15:11:23.934Z,43.11
2022-08-20T15:16:25.579Z,43.57
2022-08-20T15:21:30.072Z,42.74
2022-08-20T15:26:47.344Z,43.41
2022-08-20T15:31:48.866Z,42.76
2022-08-20T15:36:50.384Z,42.41
2022-08-20T15:41:51.886Z,42.80
2022-08-20T15:46:53.380Z,42.80
2022-08-20T15:51:55.008Z,42.82
2022-08-20T15:57:34.448Z,43.24
2022-08-20T16:02:55.120Z,43.36
2022-08-20T16:08:15.304Z,43.24
2022-08-20T16:13:28.608Z,43.62
2022-08-20T16:18:34.667Z,43.98
2022-08-20T16:23:39.238Z,43.75
2022-08-20T16:29:02.658Z,44.67
2022-08-20T16:34:33.189Z,45.02
2022-08-20T16:39:45.411Z,45.41
2022-08-20T16:44:53.889Z,45.60
2022-08-20T16:50:19.823Z,45.95
2022-08-20T16:55:23.103Z,45.85
2022-08-20T17:00:30.360Z,46.91
2022-08-20T17:05:54.315Z,46.70
2022-08-20T17:11:31.011Z,46.42
2022-08-20T17:16:35.938Z,47.04
2022-08-20T17:21:38.752Z,46.84
2022-08-20T17:26:44.370Z,47.69
2022-08-20T17:31:50.450Z,49.47
2022-08-20T17:37:04.560Z,51.12
2022-08-20T17:42:25.637Z,52.34
2022-08-20T17:47:36.744Z,53.45
2022-08-20T17:52:50.406Z,54.22
2022-08-20T17:57:57.836Z,55.18
2022-08-20T18:03:13.483Z,56.00
2022-08-20T18:08:17.057Z,56.85
2022-08-20T18:13:23.830Z,57.60
2022-08-20T18:18:52.923Z,58.55
2022-08-20T18:24:06.736Z,58.94
2022-08-20T18:29:18.578Z,58.94
2022-08-20T18:34:28.953Z,60.50
2022-08-20T18:39:50.886Z,60.81
2022-08-20T18:44:54.784Z,61.69
2022-08-20T18:50:16.101Z,61.81
2022-08-20T18:55:31.762Z,100.00
2022-08-20T19:00:41.936Z,63.19
2022-08-20T19:05:46.304Z,63.92
2022-08-20T19:11:02.993Z,64.72
2022-08-20T19:16:32.499Z,65.34
2022-08-20T19:21:35.613Z,65.92
2022-08-20T19:26:44.605Z,66.25
2022-08-20T19:31:46.974Z,66.88
2022-08-20T19:37:09.130Z,67.14
2022-08-20T19:42:27.143Z,67.83
2022-08-20T19:47:34.814Z,68.29
2022-08-20T19:53:05.019Z,100.00
2022-08-20T19:58:20.388Z,100.00
2022-08-20T20:03:33.208Z,100.00
2022-08-20T20:08:59.959Z,100.00
2022-08-20T20:14:08.793Z,100.00
2022-08-20T20:19:28.629Z,100.00
2022-08-20T20:24:42.049Z,100.00
2022-08-20T20:29:43.853Z,100.00
2022-08-20T20:34:54.880Z,100.00
2022-08-20T20:40:19.955Z,100.00
2022-08-20T20:45:28.971Z,100.00
2022-08-20T20:50:39.797Z,100.00
2022-08-20T20:55:52.879Z,75.56
2022-08-20T21:00:55.088Z,76.00
2022-08-20T21:05:56.977Z,76.43
2022-08-20T21:10:58.988Z,77.08
2022-08-20T21:16:00.692Z,77.45
2022-08-20T21:21:07.487Z,77.71
2022-08-20T21:26:09.129Z,78.09
2022-08-20T21:31:10.721Z,78.62
2022-08-20T21:36:12.367Z,79.03
2022-08-20T21:41:14.544Z,79.24
2022-08-20T21:46:17.504Z,79.35
2022-08-20T21:51:26.520Z,79.93
2022-08-20T21:56:28.797Z,80.39
2022-08-20T22:01:34.668Z,80.68
2022-08-20T22:06:36.224Z,80.67
2022-08-20T22:11:37.856Z,80.67
2022-08-20T22:16:42.332Z,81.30
2022-08-20T22:21:47.227Z,81.84
2022-08-20T22:26:48.822Z,82.18
2022-08-20T22:31:50.801Z,82.19
2022-08-20T22:36:54.276Z,82.20
2022-08-20T22:41:56.308Z,82.50
2022-08-20T22:47:06.724Z,82.70
2022-08-20T22:52:09.173Z,82.89
2022-08-20T22:57:10.835Z,83.23
2022-08-20T23:02:17.136Z,83.57
2022-08-20T23:07:19.571Z,83.78
2022-08-20T23:12:20.999Z,83.99
2022-08-20T23:17:23.518Z,84.01
2022-08-20T23:22:25.127Z,84.22
2022-08-20T23:27:27.193Z,84.25
2022-08-20T23:32:28.834Z,84.65
2022-08-20T23:37:31.290Z,84.93
2022-08-20T23:42:33.186Z,85.12
2022-08-20T23:47:35.960Z,85.33
2022-08-20T23:52:37.681Z,85.43
2022-08-20T23:57:39.638Z,85.71
